Terminal Aerodrome Forecast
Issued by NWS Pocatello, ID

Home | Current Version | Previous Version | Text Only | Print | Product List | Glossary On
Versions: 1 2 3 4 5 6 7 8 9 10 11 12 13 14 15 16 17 18 19 20 21 22 23 24 25 26 27 28 29
903
FTUS45 KPIH 192152 AAB
TAFBYI
TAF AMD
KBYI 192152Z 1922/2018 27012KT P6SM VCSH SCT015 BKN040
     FM192300 25009KT P6SM VCSH BKN008 OVC015
     FM201400 27011KT P6SM SCT020 BKN060=

USA.gov is the U.S. government's official web portal to all federal, state and local government web resources and services.